createdAt,value
2022-09-29T00:01:13.518Z,7.80
2022-09-29T00:03:41.858Z,7.27
2022-09-29T00:06:15.037Z,6.07
2022-09-29T00:08:43.457Z,6.93
2022-09-29T00:11:15.159Z,6.53
2022-09-29T00:13:43.535Z,7.03
2022-09-29T00:16:12.118Z,6.20
2022-09-29T00:18:40.536Z,7.10
2022-09-29T00:21:10.827Z,6.67
2022-09-29T00:23:39.567Z,6.40
2022-09-29T00:26:09.917Z,6.50
2022-09-29T00:28:40.708Z,7.03
2022-09-29T00:31:10.024Z,6.10
2022-09-29T00:33:38.994Z,7.60
2022-09-29T00:36:09.704Z,6.63
2022-09-29T00:38:38.168Z,7.13
2022-09-29T00:41:07.585Z,6.30
2022-09-29T00:44:01.145Z,9.00
2022-09-29T00:46:42.697Z,7.37
2022-09-29T00:49:16.340Z,8.17
2022-09-29T00:51:47.128Z,10.17
2022-09-29T00:54:16.435Z,7.83
2022-09-29T00:56:46.186Z,7.87
2022-09-29T00:59:18.772Z,7.53
2022-09-29T01:01:47.444Z,8.30
2022-09-29T01:04:18.583Z,7.37
2022-09-29T01:06:49.384Z,7.30
2022-09-29T01:09:19.627Z,7.73
2022-09-29T01:11:47.915Z,7.83
2022-09-29T01:14:18.167Z,8.73
2022-09-29T01:16:46.480Z,8.30
2022-09-29T01:19:18.596Z,8.23
2022-09-29T01:21:55.797Z,7.77
2022-09-29T01:24:50.603Z,7.77
2022-09-29T01:27:26.606Z,8.83
2022-09-29T01:30:07.765Z,8.73
2022-09-29T01:32:54.063Z,8.30
2022-09-29T01:35:28.505Z,7.80
2022-09-29T01:38:06.285Z,8.50
2022-09-29T01:40:40.720Z,11.23
2022-09-29T01:43:10.753Z,8.30
2022-09-29T01:45:41.780Z,8.97
2022-09-29T01:48:15.245Z,9.07
2022-09-29T01:50:46.994Z,9.67
2022-09-29T01:53:17.484Z,9.13
2022-09-29T01:55:48.383Z,8.97
2022-09-29T01:58:20.125Z,9.53
2022-09-29T02:00:52.105Z,8.77
2022-09-29T02:03:24.734Z,8.67
2022-09-29T02:05:54.374Z,9.70
2022-09-29T02:08:27.070Z,8.93
2022-09-29T02:10:59.034Z,10.23
2022-09-29T02:13:28.454Z,9.00
2022-09-29T02:15:57.621Z,10.77
2022-09-29T02:18:30.598Z,8.17
2022-09-29T02:20:58.933Z,9.70
2022-09-29T02:23:27.154Z,8.73
2022-09-29T02:25:56.602Z,10.57
2022-09-29T02:28:25.022Z,9.10
2022-09-29T02:30:54.192Z,11.27
2022-09-29T02:33:24.306Z,11.70
2022-09-29T02:36:00.375Z,12.00
2022-09-29T02:38:38.939Z,11.13
2022-09-29T02:41:11.459Z,11.27
2022-09-29T02:43:58.620Z,11.90
2022-09-29T02:46:43.025Z,10.73
2022-09-29T02:49:36.770Z,10.83
2022-09-29T02:52:12.772Z,10.47
2022-09-29T02:54:50.683Z,9.83
2022-09-29T02:57:21.994Z,9.40
2022-09-29T02:59:56.003Z,10.13
2022-09-29T03:02:28.695Z,9.87
2022-09-29T03:04:56.956Z,9.73
2022-09-29T03:07:26.652Z,10.10
2022-09-29T03:09:55.154Z,10.20
2022-09-29T03:12:23.335Z,9.90
2022-09-29T03:14:51.560Z,11.23
2022-09-29T03:17:19.891Z,10.10
2022-09-29T03:19:48.103Z,12.30
2022-09-29T03:22:16.434Z,11.33
2022-09-29T03:24:46.060Z,10.13
2022-09-29T03:27:14.350Z,10.77
2022-09-29T03:29:43.142Z,9.70
2022-09-29T03:32:11.443Z,10.87
2022-09-29T03:34:39.607Z,11.37
2022-09-29T03:37:07.844Z,11.00
2022-09-29T03:39:36.235Z,11.17
2022-09-29T03:42:06.111Z,10.63
2022-09-29T03:44:43.996Z,11.53
2022-09-29T03:47:12.581Z,10.67
2022-09-29T03:49:40.844Z,9.27
2022-09-29T03:52:09.046Z,9.40
2022-09-29T03:54:37.282Z,9.83
2022-09-29T03:57:07.283Z,11.47
2022-09-29T03:59:35.615Z,10.37
2022-09-29T04:02:04.329Z,10.70
2022-09-29T04:04:32.625Z,9.63
2022-09-29T04:07:00.853Z,9.57
2022-09-29T04:09:29.182Z,9.93
2022-09-29T04:11:57.365Z,10.67
2022-09-29T04:14:27.044Z,16.17
2022-09-29T04:16:55.727Z,11.20
2022-09-29T04:19:24.913Z,10.63
2022-09-29T04:21:53.146Z,8.90
2022-09-29T04:24:21.444Z,8.60
2022-09-29T04:26:49.684Z,8.93
2022-09-29T04:29:18.410Z,11.93
2022-09-29T04:31:48.148Z,9.23
2022-09-29T04:34:18.981Z,9.33
2022-09-29T04:36:47.460Z,9.37
2022-09-29T04:39:15.854Z,8.50
2022-09-29T04:41:44.124Z,9.10
2022-09-29T04:44:12.400Z,11.30
2022-09-29T04:46:40.842Z,10.17
2022-09-29T04:49:10.731Z,11.30
2022-09-29T04:51:38.901Z,12.77
2022-09-29T04:54:07.403Z,11.20
2022-09-29T04:56:35.625Z,11.60
2022-09-29T04:59:03.934Z,10.67
2022-09-29T05:01:32.647Z,10.17
2022-09-29T05:04:00.865Z,11.67
2022-09-29T05:06:30.673Z,11.53
2022-09-29T05:08:58.906Z,11.43
2022-09-29T05:11:27.101Z,11.83
2022-09-29T05:13:55.473Z,13.20
2022-09-29T05:16:23.899Z,12.83
2022-09-29T05:18:52.544Z,11.40
2022-09-29T05:21:28.110Z,10.90
2022-09-29T05:23:59.127Z,11.57
2022-09-29T05:26:27.680Z,12.10
2022-09-29T05:28:55.965Z,12.07
2022-09-29T05:31:24.172Z,11.57
2022-09-29T05:33:52.585Z,11.73
2022-09-29T05:36:20.784Z,11.17
2022-09-29T05:38:49.005Z,13.77
2022-09-29T05:41:22.679Z,11.43
2022-09-29T05:43:51.264Z,11.70
2022-09-29T05:46:19.562Z,14.10
2022-09-29T05:48:48.099Z,10.63
2022-09-29T05:51:22.664Z,11.23
2022-09-29T05:53:51.842Z,10.57
2022-09-29T05:56:23.814Z,11.83
2022-09-29T05:58:52.253Z,13.80
2022-09-29T06:01:21.910Z,11.80
2022-09-29T06:03:51.219Z,11.67
2022-09-29T06:06:21.640Z,17.53
2022-09-29T06:08:50.556Z,13.97
2022-09-29T06:11:20.682Z,13.67
2022-09-29T06:13:51.683Z,14.20
2022-09-29T06:16:21.510Z,14.70
2022-09-29T06:18:50.060Z,16.80
2022-09-29T06:21:20.462Z,15.10
2022-09-29T06:23:48.680Z,13.17
2022-09-29T06:26:23.385Z,13.33
2022-09-29T06:28:53.854Z,13.23
2022-09-29T06:31:23.467Z,13.50
2022-09-29T06:33:52.236Z,12.73
2022-09-29T06:36:39.365Z,13.87
2022-09-29T06:39:09.463Z,13.50
2022-09-29T06:41:37.735Z,13.20
2022-09-29T06:44:07.442Z,12.70
2022-09-29T06:46:35.740Z,13.77
2022-09-29T06:49:03.892Z,12.63
2022-09-29T06:51:44.157Z,13.27
2022-09-29T06:54:14.770Z,12.53
2022-09-29T06:56:43.366Z,11.30
2022-09-29T06:59:13.037Z,12.40
2022-09-29T07:01:41.397Z,12.37
2022-09-29T07:04:09.675Z,13.70
2022-09-29T07:06:37.962Z,11.60
2022-09-29T07:09:06.141Z,11.17
2022-09-29T07:11:34.392Z,11.57
2022-09-29T07:14:02.744Z,11.70
2022-09-29T07:16:32.394Z,10.60
2022-09-29T07:19:00.630Z,10.30
2022-09-29T07:21:28.862Z,10.17
2022-09-29T07:24:01.886Z,10.87
2022-09-29T07:26:30.634Z,11.73
2022-09-29T07:28:59.506Z,11.57
2022-09-29T07:31:28.258Z,12.53
2022-09-29T07:33:58.402Z,10.30
2022-09-29T07:36:26.603Z,12.77
2022-09-29T07:38:54.796Z,14.87
2022-09-29T07:41:24.086Z,11.33
2022-09-29T07:43:53.821Z,36.47
2022-09-29T07:46:22.351Z,9.67
2022-09-29T07:48:50.689Z,10.50
2022-09-29T07:51:21.471Z,11.27
2022-09-29T07:53:49.733Z,10.23
2022-09-29T07:56:19.919Z,10.23
2022-09-29T07:58:49.664Z,10.67
2022-09-29T08:01:19.595Z,10.87
2022-09-29T08:03:52.041Z,10.90
2022-09-29T08:06:22.061Z,10.83
2022-09-29T08:09:02.142Z,10.43
2022-09-29T08:11:33.171Z,10.53
2022-09-29T08:14:02.603Z,9.77
2022-09-29T08:16:31.242Z,10.80
2022-09-29T08:19:00.271Z,10.53
2022-09-29T08:21:31.710Z,10.60
2022-09-29T08:24:00.700Z,44.60
2022-09-29T08:26:40.170Z,27.33
2022-09-29T08:29:15.987Z,14.97
2022-09-29T08:31:45.334Z,10.30
2022-09-29T08:34:14.841Z,9.93
2022-09-29T08:36:44.792Z,9.53
2022-09-29T08:39:13.423Z,9.13
2022-09-29T08:42:04.163Z,9.03
2022-09-29T08:44:39.341Z,8.77
2022-09-29T08:47:18.078Z,10.33
2022-09-29T08:49:49.239Z,9.27
2022-09-29T08:52:21.812Z,9.27
2022-09-29T08:54:52.895Z,12.87
2022-09-29T08:57:21.581Z,9.30
2022-09-29T08:59:54.640Z,8.93
2022-09-29T09:02:47.245Z,9.00
2022-09-29T09:05:23.822Z,9.87
2022-09-29T09:08:03.304Z,6.60
2022-09-29T09:10:41.653Z,10.00
2022-09-29T09:13:20.772Z,7.40
2022-09-29T09:15:59.171Z,7.33
2022-09-29T09:18:47.831Z,7.23
2022-09-29T09:21:19.231Z,7.53
2022-09-29T09:23:58.380Z,7.40
2022-09-29T09:26:35.301Z,7.73
2022-09-29T09:29:06.139Z,6.67
2022-09-29T09:31:39.804Z,7.50
2022-09-29T09:34:13.020Z,7.23
2022-09-29T09:36:45.754Z,7.10
2022-09-29T09:39:18.029Z,7.70
2022-09-29T09:41:49.169Z,7.27
2022-09-29T09:44:20.636Z,7.47
2022-09-29T09:46:51.227Z,12.87
2022-09-29T09:49:23.152Z,5.33
2022-09-29T09:51:56.296Z,6.67
2022-09-29T09:54:31.791Z,6.73
2022-09-29T09:57:29.309Z,5.17
2022-09-29T10:00:06.952Z,15.20
2022-09-29T10:02:35.178Z,26.13
2022-09-29T10:05:07.454Z,5.80
2022-09-29T10:07:37.781Z,5.67
2022-09-29T10:10:16.610Z,5.87
2022-09-29T10:12:45.342Z,5.27
2022-09-29T10:15:24.541Z,5.20
2022-09-29T10:18:01.301Z,5.33
2022-09-29T10:20:37.420Z,5.53
2022-09-29T10:23:36.140Z,5.20
2022-09-29T10:26:12.804Z,5.60
2022-09-29T10:28:45.770Z,5.80
2022-09-29T10:31:19.854Z,5.93
2022-09-29T10:33:52.272Z,6.57
2022-09-29T10:36:21.950Z,5.53
2022-09-29T10:38:51.573Z,8.10
2022-09-29T10:41:21.332Z,6.33
2022-09-29T10:43:53.134Z,5.27
2022-09-29T10:46:49.352Z,6.30
2022-09-29T10:49:18.900Z,6.20
2022-09-29T10:51:55.491Z,6.30
2022-09-29T10:54:27.651Z,5.83
2022-09-29T10:56:58.620Z,5.97
2022-09-29T10:59:27.459Z,6.13
2022-09-29T11:01:57.752Z,6.20
2022-09-29T11:04:28.894Z,6.47
2022-09-29T11:06:57.623Z,6.67
2022-09-29T11:09:32.942Z,6.70
2022-09-29T11:12:07.351Z,6.93
2022-09-29T11:14:42.972Z,5.97
2022-09-29T11:17:23.808Z,7.93
2022-09-29T11:19:52.562Z,6.80
2022-09-29T11:23:05.620Z,5.63
2022-09-29T11:25:49.652Z,6.07
2022-09-29T11:28:41.002Z,5.77
2022-09-29T11:31:21.041Z,6.20
2022-09-29T11:33:57.271Z,6.13
2022-09-29T11:36:32.374Z,5.43
2022-09-29T11:39:17.462Z,5.27
2022-09-29T11:41:56.062Z,6.60
2022-09-29T11:44:51.592Z,5.87
2022-09-29T11:47:29.762Z,4.70
2022-09-29T11:50:10.711Z,5.87
2022-09-29T11:52:59.599Z,4.87
2022-09-29T11:55:34.628Z,4.57
2022-09-29T11:58:19.284Z,4.87
2022-09-29T12:01:01.362Z,4.80
2022-09-29T12:03:43.595Z,4.67
2022-09-29T12:06:43.839Z,4.33
2022-09-29T12:09:25.010Z,7.47
2022-09-29T12:12:22.189Z,9.43
2022-09-29T12:15:01.482Z,5.87
2022-09-29T12:17:35.600Z,4.33
2022-09-29T12:20:08.412Z,24.00
2022-09-29T12:22:37.439Z,7.43
2022-09-29T12:25:11.913Z,4.60
2022-09-29T12:27:42.705Z,4.70
2022-09-29T12:30:17.398Z,4.63
2022-09-29T12:32:52.090Z,4.20
2022-09-29T12:35:24.432Z,4.60
2022-09-29T12:37:57.042Z,4.00
2022-09-29T12:40:30.480Z,4.10
2022-09-29T12:43:08.342Z,3.67
2022-09-29T12:45:41.912Z,3.57
2022-09-29T12:48:29.438Z,3.47
2022-09-29T12:51:02.849Z,3.50
2022-09-29T12:53:33.703Z,3.97
2022-09-29T12:56:04.592Z,3.40
2022-09-29T12:58:39.131Z,3.77
2022-09-29T13:01:26.771Z,3.50
2022-09-29T13:04:15.375Z,10.30
2022-09-29T13:06:52.972Z,3.47
2022-09-29T13:10:00.032Z,3.23
2022-09-29T13:12:57.833Z,3.13
2022-09-29T13:15:48.770Z,5.37
2022-09-29T13:19:20.123Z,3.40
2022-09-29T13:21:58.782Z,3.67
2022-09-29T13:24:36.519Z,3.20
2022-09-29T13:27:26.590Z,3.30
2022-09-29T13:29:58.622Z,4.63
2022-09-29T13:32:27.204Z,3.27
2022-09-29T13:34:57.971Z,4.50
2022-09-29T13:37:29.535Z,4.07
2022-09-29T13:40:03.390Z,4.10
2022-09-29T13:42:44.564Z,5.50
2022-09-29T13:45:18.999Z,5.60
2022-09-29T13:47:49.528Z,5.70
2022-09-29T13:50:43.190Z,4.03
2022-09-29T13:53:39.104Z,4.77
2022-09-29T13:56:12.414Z,4.30
2022-09-29T13:59:00.944Z,4.10
2022-09-29T14:01:34.452Z,4.23
2022-09-29T14:04:50.659Z,9.83
2022-09-29T14:07:37.927Z,3.90
2022-09-29T14:10:20.106Z,5.13
2022-09-29T14:12:53.695Z,6.30
2022-09-29T14:15:22.636Z,6.67
2022-09-29T14:17:55.362Z,6.33
2022-09-29T14:20:26.460Z,7.57
2022-09-29T14:22:58.782Z,7.10
2022-09-29T14:25:50.760Z,6.50
2022-09-29T14:28:22.553Z,7.00
2022-09-29T14:30:53.930Z,6.10
2022-09-29T14:33:25.532Z,5.77
2022-09-29T14:36:03.713Z,5.20
2022-09-29T14:38:33.953Z,5.67
2022-09-29T14:41:24.961Z,6.80
2022-09-29T14:43:55.282Z,6.57
2022-09-29T14:47:08.573Z,7.77
2022-09-29T14:50:10.109Z,8.48
2022-09-29T14:52:51.147Z,6.70
2022-09-29T14:55:24.290Z,7.07
2022-09-29T14:58:17.417Z,6.80
2022-09-29T15:00:56.916Z,6.60
2022-09-29T15:03:28.993Z,6.53
2022-09-29T15:06:11.788Z,6.07
2022-09-29T15:08:41.332Z,5.87
2022-09-29T15:11:45.512Z,7.50
2022-09-29T15:14:29.981Z,5.70
2022-09-29T15:17:08.012Z,6.97
2022-09-29T15:19:45.742Z,6.63
2022-09-29T15:22:26.532Z,6.50
2022-09-29T15:25:12.651Z,6.57
2022-09-29T15:27:41.490Z,8.23
2022-09-29T15:30:17.539Z,7.40
2022-09-29T15:32:48.492Z,6.87
2022-09-29T15:35:19.659Z,7.10
2022-09-29T15:37:59.451Z,8.70
2022-09-29T15:40:32.352Z,9.63
2022-09-29T15:43:01.301Z,9.97
2022-09-29T15:45:31.833Z,9.10
2022-09-29T15:48:02.563Z,8.40
2022-09-29T15:50:33.081Z,7.63
2022-09-29T15:53:03.253Z,7.33
2022-09-29T15:55:33.462Z,9.83
2022-09-29T15:58:03.812Z,10.00
2022-09-29T16:00:55.142Z,10.47
2022-09-29T16:03:39.291Z,12.77
2022-09-29T16:06:13.661Z,12.37
2022-09-29T16:08:46.263Z,11.50
2022-09-29T16:11:22.054Z,10.57
2022-09-29T16:13:55.264Z,16.80
2022-09-29T16:16:35.052Z,18.15
2022-09-29T16:19:11.280Z,17.45
2022-09-29T16:21:39.965Z,12.87
2022-09-29T16:24:19.102Z,12.33
2022-09-29T16:26:49.122Z,9.63
2022-09-29T16:29:29.183Z,11.10
2022-09-29T16:31:59.911Z,9.57
2022-09-29T16:34:30.785Z,9.87
2022-09-29T16:37:00.595Z,10.97
2022-09-29T16:39:30.688Z,9.53
2022-09-29T16:42:00.399Z,12.87
2022-09-29T16:44:31.251Z,10.47
2022-09-29T16:47:03.473Z,9.90
2022-09-29T16:49:33.899Z,11.57
2022-09-29T16:52:04.555Z,12.47
2022-09-29T16:54:34.676Z,12.67
2022-09-29T16:57:25.532Z,17.00
2022-09-29T16:59:55.511Z,18.50
2022-09-29T17:02:25.948Z,18.97
2022-09-29T17:04:55.621Z,20.53
2022-09-29T17:07:26.189Z,23.73
2022-09-29T17:09:56.119Z,21.53
2022-09-29T17:12:25.194Z,19.60
2022-09-29T17:14:53.419Z,16.80
2022-09-29T17:17:24.802Z,14.00
2022-09-29T17:19:56.701Z,14.23
2022-09-29T17:22:31.144Z,11.93
2022-09-29T17:24:59.864Z,10.60
2022-09-29T17:27:46.362Z,11.03
2022-09-29T17:30:18.868Z,17.98
2022-09-29T17:32:49.223Z,14.70
2022-09-29T17:35:18.621Z,14.52
2022-09-29T17:37:47.900Z,11.80
2022-09-29T17:40:22.133Z,12.93
2022-09-29T17:42:50.375Z,11.27
2022-09-29T17:45:20.504Z,10.70
2022-09-29T17:47:50.503Z,10.20
2022-09-29T17:50:28.144Z,10.50
2022-09-29T17:52:56.571Z,11.50
2022-09-29T17:55:24.783Z,15.67
2022-09-29T17:57:53.746Z,31.47
2022-09-29T18:00:23.142Z,20.83
2022-09-29T18:02:57.188Z,33.33
2022-09-29T18:05:26.767Z,24.67
2022-09-29T18:07:56.653Z,22.97
2022-09-29T18:10:27.982Z,17.37
2022-09-29T18:12:56.256Z,22.20
2022-09-29T18:15:25.449Z,19.20
2022-09-29T18:17:58.262Z,14.73
2022-09-29T18:20:27.342Z,13.00
2022-09-29T18:22:55.481Z,13.97
2022-09-29T18:25:23.659Z,10.47
2022-09-29T18:27:52.073Z,10.43
2022-09-29T18:30:22.482Z,10.27
2022-09-29T18:32:52.592Z,10.63
2022-09-29T18:35:24.323Z,11.20
2022-09-29T18:37:53.190Z,11.13
2022-09-29T18:40:22.930Z,11.93
2022-09-29T18:42:53.412Z,13.77
2022-09-29T18:45:24.223Z,14.53
2022-09-29T18:47:53.583Z,16.23
2022-09-29T18:50:25.490Z,16.37
2022-09-29T18:52:54.003Z,16.77
2022-09-29T18:55:24.594Z,16.60
2022-09-29T18:57:53.895Z,18.25
2022-09-29T19:00:23.390Z,14.77
2022-09-29T19:02:52.406Z,16.07
2022-09-29T19:05:29.122Z,16.73
2022-09-29T19:07:58.701Z,17.77
2022-09-29T19:10:27.589Z,16.83
2022-09-29T19:12:59.129Z,15.77
2022-09-29T19:15:30.553Z,15.27
2022-09-29T19:18:01.582Z,22.40
2022-09-29T19:20:31.461Z,17.57
2022-09-29T19:23:03.211Z,17.57
2022-09-29T19:25:33.372Z,20.67
2022-09-29T19:28:05.202Z,29.13
2022-09-29T19:30:34.809Z,16.47
2022-09-29T19:33:03.510Z,13.33
2022-09-29T19:35:33.792Z,11.87
2022-09-29T19:38:02.753Z,11.80
2022-09-29T19:40:34.552Z,10.97
2022-09-29T19:43:05.930Z,11.53
2022-09-29T19:45:37.668Z,16.23
2022-09-29T19:48:06.802Z,18.43
2022-09-29T19:50:54.300Z,19.80
2022-09-29T19:53:23.092Z,22.67
2022-09-29T19:56:00.262Z,20.17
2022-09-29T19:58:28.942Z,19.13
2022-09-29T20:01:00.110Z,18.80
2022-09-29T20:03:28.542Z,17.87
2022-09-29T20:06:02.309Z,17.00
2022-09-29T20:08:31.012Z,17.33
2022-09-29T20:11:06.873Z,16.83
2022-09-29T20:13:35.314Z,15.97
2022-09-29T20:16:04.437Z,15.43
2022-09-29T20:18:34.832Z,15.67
2022-09-29T20:21:08.853Z,16.00
2022-09-29T20:23:37.703Z,17.37
2022-09-29T20:26:09.214Z,17.73
2022-09-29T20:28:38.013Z,17.97
2022-09-29T20:31:07.832Z,16.03
2022-09-29T20:33:36.896Z,16.47
2022-09-29T20:36:06.269Z,16.40
2022-09-29T20:38:41.829Z,15.77
2022-09-29T20:41:10.842Z,16.13
2022-09-29T20:43:39.341Z,16.87
2022-09-29T20:46:09.366Z,15.97
2022-09-29T20:48:39.362Z,17.93
2022-09-29T20:51:15.381Z,14.60
2022-09-29T20:53:51.242Z,14.60
2022-09-29T20:56:19.991Z,14.30
2022-09-29T20:58:49.972Z,14.47
2022-09-29T21:01:21.162Z,14.40
2022-09-29T21:03:51.480Z,16.23
2022-09-29T21:06:19.887Z,13.83
2022-09-29T21:08:49.843Z,11.50
2022-09-29T21:11:18.702Z,11.30
2022-09-29T21:13:48.222Z,11.50
2022-09-29T21:16:16.726Z,11.43
2022-09-29T21:18:45.603Z,12.87
2022-09-29T21:21:14.010Z,21.83
2022-09-29T21:23:43.681Z,19.63
2022-09-29T21:26:15.283Z,15.37
2022-09-29T21:28:45.323Z,12.47
2022-09-29T21:31:15.627Z,11.27
2022-09-29T21:33:44.433Z,11.40
2022-09-29T21:36:14.383Z,12.07
2022-09-29T21:38:44.146Z,10.10
2022-09-29T21:41:16.632Z,9.70
2022-09-29T21:43:45.400Z,10.17
2022-09-29T21:46:15.378Z,11.17
2022-09-29T21:48:44.273Z,12.70
2022-09-29T21:51:14.630Z,12.23
2022-09-29T21:53:44.682Z,12.43
2022-09-29T21:56:16.389Z,12.07
2022-09-29T21:58:46.203Z,15.37
2022-09-29T22:01:14.769Z,15.33
2022-09-29T22:03:44.902Z,13.80
2022-09-29T22:06:14.613Z,11.90
2022-09-29T22:08:43.470Z,10.97
2022-09-29T22:11:13.886Z,12.13
2022-09-29T22:13:42.924Z,11.23
2022-09-29T22:16:13.088Z,10.03
2022-09-29T22:18:42.450Z,8.87
2022-09-29T22:21:13.155Z,9.40
2022-09-29T22:23:41.593Z,8.93
2022-09-29T22:26:12.573Z,9.50
2022-09-29T22:28:45.632Z,9.67
2022-09-29T22:31:15.508Z,9.70
2022-09-29T22:33:46.813Z,10.73
2022-09-29T22:36:15.381Z,9.13
2022-09-29T22:38:44.025Z,8.20
2022-09-29T22:41:13.620Z,8.50
2022-09-29T22:43:43.433Z,9.97
2022-09-29T22:46:12.453Z,8.90
2022-09-29T22:48:41.293Z,8.17
2022-09-29T22:51:10.069Z,9.40
2022-09-29T22:53:38.432Z,12.83
2022-09-29T22:56:11.685Z,20.67
2022-09-29T22:58:43.191Z,15.73
2022-09-29T23:01:13.992Z,11.83
2022-09-29T23:03:43.188Z,12.93
2022-09-29T23:06:11.856Z,11.43
2022-09-29T23:08:40.882Z,10.33
2022-09-29T23:11:09.952Z,10.83
2022-09-29T23:13:40.811Z,12.40
2022-09-29T23:16:12.766Z,10.93
2022-09-29T23:18:45.183Z,10.90
2022-09-29T23:21:14.980Z,11.13
2022-09-29T23:23:43.531Z,9.87
2022-09-29T23:26:12.144Z,11.00
2022-09-29T23:28:40.790Z,9.87
2022-09-29T23:31:11.834Z,10.93
2022-09-29T23:33:40.493Z,10.27
2022-09-29T23:36:10.782Z,10.17
2022-09-29T23:38:57.185Z,10.50
2022-09-29T23:41:27.334Z,11.03
2022-09-29T23:43:56.971Z,10.53
2022-09-29T23:46:28.122Z,10.97
2022-09-29T23:48:56.971Z,12.60
2022-09-29T23:51:25.534Z,10.40
2022-09-29T23:53:54.110Z,10.00
2022-09-29T23:56:22.663Z,10.50
2022-09-29T23:58:51.094Z,9.63
